Impacts TAF Board INFO
FOR SITUATIONAL AWARENESS. NOT TO BE USED FOR FLIGHT PLANNING PURPOSES.
IDs:

KLGA - New York/La Guardia, NY, US

Issued at 1323 UTC 14 Dec 2017
Updated at 1500 UTC 14 Dec 2017
Potential Impact None Slight Moderate High
Time1451Z 14/15Z 14/16Z 14/17Z 14/18Z 14/19Z 14/20Z 14/21Z 14/22Z 14/23Z 15/00Z 15/01Z 15/02Z 15/03Z>>
Type OBS PRVL PRVL PRVL PRVL PRVL PRVL PRVL PRVL PRVL PRVL PRVL PRVL PRVL
VIS 10 >6 >6 >6 >6 >6 >6 >6 >6 >6 >6 >6 >6 >6
CIG 14 25 25 -- -- -- -- -- -- -- -- -- -- --
Cover OVC OVC OVC SCT SCT SCT SCT SCT SCT SCT FEW FEW FEW FEW
FltCat MVFR MVFR MVFR VFR VFR VFR VFR VFR VFR VFR VFR VFR VFR VFR
WX -- -- -- -- -- -- -- -- -- -- -- -- -- --
WDir 20 330 330 310 310 310 310 310 310 310 310 310 310 310
WSpd 10 11 11 13 13 13 13 13 13 13 11 11 11 11
WGst -- -- -- 21 21 21 21 21 21 21 -- -- -- --

Raw TAF
KLGA 141323Z 1413/1518 01010KT 4SM -SN OVC015
  FM141400 33011KT P6SM SCT015 OVC025
  TEMPO 1414/1415 BKN015
  FM141700 31013G21KT P6SM SCT025 SCT060
  FM150000 31011KT P6SM FEW230
  FM151300 26006KT P6SM OVC200


Raw METAR
KLGA 141451Z 02010KT 10SM FEW010 BKN014 OVC026 M02/M06 A2970 RMK AO2 SLP055 60002 T10221056 53041 $
KLGA 141351Z 01011KT 9SM BKN016 BKN024 OVC045 M02/M05 A2964 RMK AO2 SNE48 SLP036 P0001 T10221050 $
KLGA 141313Z 36009G17KT 4SM -SN BR FEW008 BKN016 OVC024 M03/M05 A2961 RMK AO2 P0001 T10281050 $
KLGA 141251Z 01007KT 1 1/2SM -SN BR FEW007 FEW010 OVC014 M03/M04 A2959 RMK AO2 SLP020 P0001 T10281044 $
KLGA 141230Z 01006KT 1 1/2SM -SN BR SCT007 BKN014 OVC022 M03/M04 A2959 RMK AO2 P0001 T10281044 $
KLGA 141159Z VRB05KT 1 1/2SM R04/5500VP6000FT -SN BR BKN007 BKN015 OVC020 M02/M04 A2958 RMK AO2 P0000 T10221044 $
KLGA 141151Z VRB05KT 2SM -SN BR SCT007 BKN012 OVC020 M02/M04 A2957 RMK AO2 SNB08 SLP014 931008 4/001 P0001 60005 70005 T10221044 11022 21044 53015 $
KLGA 141134Z 02005KT 4SM -SN BR SCT007 BKN014 OVC028 M02/M04 A2956 RMK AO2 SNB08 P0000 T10221044 $

METAR Board
Radar Display
Forecast Discussion

FOR SITUATIONAL AWARENESS. NOT TO BE USED FOR FLIGHT PLANNING PURPOSES.